Time;durP1;ratioP1;P1;durP2;ratioP2;P2;SDS_P1;SDS_P2;PMS_P1;PMS_P2;Temp;Humidity;BMP_temperature;BMP_pressure;BME280_temperature;BME280_humidity;BME280_pressure;Samples;Min_cycle;Max_cycle;Signal;HPM_P1;HPM_P2
2021/01/11 00:01:04;;;;;;;21.50;9.57;;;;;;;;;;5036608;28;20302;-74
2021/01/11 00:03:34;;;;;;;19.70;9.07;;;-4.00;1.00;;;;;;5036827;28;20157;-74
2021/01/11 00:06:04;;;;;;;17.90;8.85;;;-4.00;1.00;;;;;;5056693;28;20172;-74
2021/01/11 00:08:40;;;;;;;23.25;9.50;;;-4.00;1.00;;;;;;5043651;28;20188;-74
2021/01/11 00:11:06;;;;;;;26.20;10.05;;;-4.00;1.00;;;;;;5037015;28;20243;-74
2021/01/11 00:13:41;;;;;;;25.07;11.13;;;-4.00;1.00;;;;;;5040440;28;20238;-74
2021/01/11 00:16:28;;;;;;;22.90;10.82;;;-4.10;1.00;;;;;;5048682;28;20182;-74
2021/01/11 00:18:53;;;;;;;25.67;10.10;;;-4.10;1.00;;;;;;5041336;28;20262;-74
2021/01/11 00:21:28;;;;;;;34.37;11.23;;;-4.10;1.00;;;;;;5033965;28;20192;-74
2021/01/11 00:23:54;;;;;;;22.88;9.60;;;-4.00;1.00;;;;;;5045362;28;20172;-74
2021/01/11 00:26:20;;;;;;;23.27;9.93;;;-4.10;1.00;;;;;;5056138;28;20183;-74
2021/01/11 00:32:08;;;;;;;13.10;7.28;;;-4.10;1.00;;;;;;5055926;28;20257;-79
2021/01/11 00:35:10;;;;;;;15.20;8.30;;;-4.10;1.00;;;;;;5055713;28;20239;-79
2021/01/11 00:40:57;;;;;;;12.93;6.50;;;-4.20;1.00;;;;;;5036125;28;20250;-79
2021/01/11 00:43:23;;;;;;;11.87;6.40;;;-4.20;1.00;;;;;;5035890;28;20168;-74
2021/01/11 00:46:04;;;;;;;15.37;6.70;;;-4.20;1.00;;;;;;5035867;28;20164;-79
2021/01/11 00:55:14;;;;;;;12.70;6.30;;;-4.20;1.00;;;;;;5054845;28;20199;-78
2021/01/11 00:57:42;;;;;;;13.73;5.95;;;-4.30;1.00;;;;;;5042432;28;20223;-74
2021/01/11 01:00:10;;;;;;;16.80;7.80;;;-4.30;1.00;;;;;;5035409;28;20227;-74
2021/01/11 01:02:36;;;;;;;15.30;7.05;;;-4.20;1.00;;;;;;5035790;28;20258;-74
2021/01/11 01:05:10;;;;;;;14.13;6.83;;;-4.30;1.00;;;;;;5047465;28;20187;-74
2021/01/11 01:08:15;;;;;;;12.60;6.25;;;-4.30;1.00;;;;;;5035459;28;20148;-74
2021/01/11 01:10:43;;;;;;;11.13;6.20;;;-4.30;1.00;;;;;;5043716;28;20168;-74
2021/01/11 01:23:14;;;;;;;22.17;8.20;;;;;;;;;;5054012;28;20217;-79
2021/01/11 01:29:04;;;;;;;13.00;7.13;;;;;;;;;;5040374;28;20187;-79
2021/01/11 01:34:34;;;;;;;16.10;6.50;;;;;;;;;;5039553;28;20217;-78
2021/01/11 01:40:23;;;;;;;15.20;8.77;;;-4.30;1.00;;;;;;5034466;28;20449;-79
2021/01/11 01:46:20;;;;;;;16.45;8.35;;;-4.40;1.00;;;;;;5044355;28;20221;-79
2021/01/11 01:52:08;;;;;;;14.60;8.30;;;-4.40;1.00;;;;;;5041136;28;20252;-79
2021/01/11 01:55:05;;;;;;;18.38;7.43;;;-4.40;1.00;;;;;;5035668;28;20244;-79
2021/01/11 01:57:31;;;;;;;18.52;7.75;;;;;;;;;;5054368;28;20245;-76
2021/01/11 02:03:18;;;;;;;19.05;8.02;;;-4.40;1.00;;;;;;5054391;28;20159;-79
2021/01/11 02:09:54;;;;;;;12.48;7.63;;;-4.40;1.00;;;;;;5054148;28;20154;-79
2021/01/11 02:12:24;;;;;;;17.02;8.38;;;-4.50;1.00;;;;;;5015039;28;20267;-79
2021/01/11 02:15:52;;;;;;;15.02;7.78;;;-4.50;1.00;;;;;;5012510;28;20299;-78
2021/01/11 02:21:51;;;;;;;16.48;8.30;;;-4.40;1.00;;;;;;4924130;29;20311;-79
2021/01/11 02:28:30;;;;;;;14.57;7.57;;;-4.50;1.00;;;;;;4934114;29;20194;-79
2021/01/11 02:41:01;;;;;;;12.48;7.30;;;-4.50;1.00;;;;;;4877619;29;20220;-79
2021/01/11 02:43:28;;;;;;;21.05;9.15;;;-4.50;1.00;;;;;;4859418;29;20186;-73
2021/01/11 02:46:10;;;;;;;17.95;7.45;;;-4.50;1.00;;;;;;4863441;29;20189;-74
2021/01/11 02:48:36;;;;;;;14.25;7.55;;;-4.50;1.00;;;;;;4870440;29;20193;-74
2021/01/11 02:51:28;;;;;;;18.03;8.33;;;-4.50;1.00;;;;;;4874912;29;20204;-74
2021/01/11 02:54:33;;;;;;;16.52;6.80;;;-4.50;1.00;;;;;;4933478;29;20286;-74
2021/01/11 02:57:03;;;;;;;20.40;8.43;;;-4.50;1.00;;;;;;4972978;28;20166;-74
2021/01/11 02:59:34;;;;;;;19.40;8.73;;;-4.50;1.00;;;;;;4972999;28;20206;-74
2021/01/11 03:02:07;;;;;;;19.13;8.13;;;-4.50;1.00;;;;;;4972848;28;20178;-74
2021/01/11 03:04:36;;;;;;;23.38;8.75;;;-4.50;1.00;;;;;;4972890;28;20174;-73
2021/01/11 03:07:04;;;;;;;15.10;7.13;;;-4.50;1.00;;;;;;5015357;28;20709;-74
2021/01/11 03:09:42;;;;;;;13.25;7.65;;;-4.50;1.00;;;;;;5033565;28;20226;-74
2021/01/11 03:12:16;;;;;;;15.05;7.20;;;-4.50;1.00;;;;;;5037059;28;20206;-74
2021/01/11 03:15:10;;;;;;;11.82;6.85;;;-4.50;1.00;;;;;;5033877;28;20570;-74
2021/01/11 03:17:35;;;;;;;14.32;6.65;;;-4.50;1.00;;;;;;5034328;28;20176;-74
2021/01/11 03:20:11;;;;;;;16.00;7.90;;;-4.50;1.00;;;;;;5036813;28;20196;-74
2021/01/11 03:22:46;;;;;;;16.42;7.60;;;-4.50;1.00;;;;;;5048959;28;20198;-74
2021/01/11 03:25:12;;;;;;;13.27;7.30;;;-4.60;1.00;;;;;;5053296;28;20167;-74
2021/01/11 03:27:52;;;;;;;16.50;8.33;;;-4.60;1.00;;;;;;5053485;28;20626;-74
2021/01/11 03:30:28;;;;;;;15.82;7.07;;;-4.60;1.00;;;;;;5044480;28;20421;-74
2021/01/11 03:32:54;;;;;;;12.43;7.53;;;;;;;;;;5050114;28;20645;-74
2021/01/11 03:35:28;;;;;;;16.48;7.25;;;-4.60;1.00;;;;;;5033732;28;20249;-74
2021/01/11 03:38:04;;;;;;;16.27;7.85;;;-4.60;1.00;;;;;;5047608;28;20546;-74
2021/01/11 03:40:40;;;;;;;16.73;7.40;;;;;;;;;;5035660;28;20677;-74
2021/01/11 03:43:10;;;;;;;13.32;6.75;;;-4.70;1.00;;;;;;5033077;28;20172;-74
2021/01/11 03:46:05;;;;;;;19.63;7.90;;;-4.70;1.00;;;;;;5035969;28;20608;-79
2021/01/11 03:48:52;;;;;;;19.55;8.75;;;-4.70;1.00;;;;;;5051065;28;20180;-79
2021/01/11 03:51:34;;;;;;;20.25;7.50;;;;;;;;;;5051992;28;20191;-78
2021/01/11 03:54:00;;;;;;;16.02;7.55;;;-4.60;1.00;;;;;;5046990;28;20176;-79
2021/01/11 03:56:34;;;;;;;16.97;7.70;;;-4.70;1.00;;;;;;5053083;28;20258;-79
2021/01/11 03:59:00;;;;;;;12.15;6.97;;;-4.70;1.00;;;;;;5050559;28;20858;-74
2021/01/11 04:01:27;;;;;;;14.70;7.07;;;-4.70;1.00;;;;;;5036273;28;20199;-74
2021/01/11 04:03:53;;;;;;;16.00;8.23;;;-4.70;1.00;;;;;;5036366;28;20153;-74
2021/01/11 04:06:23;;;;;;;16.35;7.45;;;-4.80;1.00;;;;;;5037234;28;20160;-74
2021/01/11 04:08:52;;;;;;;17.33;7.20;;;-4.80;1.00;;;;;;5056612;28;20164;-74
2021/01/11 04:11:22;;;;;;;15.82;7.38;;;-4.80;1.00;;;;;;5055035;28;20542;-75
2021/01/11 04:13:52;;;;;;;15.85;7.88;;;-4.70;1.00;;;;;;5056498;28;20160;-74
2021/01/11 04:16:22;;;;;;;17.45;7.82;;;-4.80;1.00;;;;;;5039446;28;20227;-74
2021/01/11 04:18:49;;;;;;;15.63;8.73;;;-4.80;1.00;;;;;;5036322;28;20684;-74
2021/01/11 04:21:22;;;;;;;18.63;7.75;;;-4.80;1.00;;;;;;5038264;28;20211;-74
2021/01/11 04:24:10;;;;;;;17.15;6.65;;;-4.90;1.00;;;;;;5053270;28;20183;-74
2021/01/11 04:26:44;;;;;;;13.93;7.10;;;;;;;;;;5054943;28;20247;-74
2021/01/11 04:32:40;;;;;;;15.93;6.75;;;-4.90;1.00;;;;;;5041108;28;20233;-74
2021/01/11 04:35:11;;;;;;;14.00;7.47;;;-4.90;1.00;;;;;;5036290;28;20156;-74
2021/01/11 04:37:42;;;;;;;13.00;7.18;;;-4.90;1.00;;;;;;5035936;28;20173;-74
2021/01/11 04:40:09;;;;;;;14.32;7.82;;;-5.00;1.00;;;;;;5037383;28;20284;-74
2021/01/11 04:43:22;;;;;;;11.20;6.07;;;-5.00;1.00;;;;;;5053471;28;20160;-73
2021/01/11 04:49:09;;;;;;;15.77;6.85;;;-5.10;1.00;;;;;;5047279;28;20524;-79
2021/01/11 04:58:21;;;;;;;13.60;6.45;;;-5.10;1.00;;;;;;5035587;28;20307;-79
2021/01/11 05:01:00;;;;;;;16.33;8.02;;;-5.10;1.00;;;;;;5036021;28;20785;-79
2021/01/11 05:04:15;;;;;;;14.40;7.45;;;-5.10;1.00;;;;;;5043896;28;20638;-79
2021/01/11 05:10:05;;;;;;;13.93;7.68;;;-5.20;1.00;;;;;;5045523;28;20381;-79
2021/01/11 05:13:15;;;;;;;19.33;7.97;;;-5.10;1.00;;;;;;5037086;28;20181;-78
2021/01/11 05:15:52;;;;;;;14.25;7.38;;;-5.10;1.00;;;;;;5044358;28;20172;-74
2021/01/11 05:18:31;;;;;;;13.02;6.85;;;-5.10;1.00;;;;;;5050895;28;20250;-73
2021/01/11 05:20:58;;;;;;;21.67;7.80;;;-5.10;1.00;;;;;;5041762;28;20195;-74
2021/01/11 05:23:36;;;;;;;16.25;7.97;;;-5.00;1.00;;;;;;5039428;28;20615;-74
2021/01/11 05:26:13;;;;;;;17.05;7.57;;;-5.00;1.00;;;;;;5054362;28;20163;-74
2021/01/11 05:28:39;;;;;;;17.55;7.63;;;-5.00;1.00;;;;;;5052942;28;20156;-74
2021/01/11 05:31:22;;;;;;;18.67;8.18;;;-5.10;1.00;;;;;;5035888;28;20168;-78
2021/01/11 05:34:22;;;;;;;15.95;7.53;;;-5.00;1.00;;;;;;5034811;28;20172;-78
2021/01/11 05:40:15;;;;;;;17.52;6.82;;;-5.00;1.00;;;;;;5034753;28;20215;-78
2021/01/11 05:46:25;;;;;;;19.30;7.63;;;-5.10;1.00;;;;;;5035275;28;20530;-74
2021/01/11 05:49:11;;;;;;;13.48;7.00;;;-5.00;1.00;;;;;;5035325;28;20789;-76
2021/01/11 05:51:38;;;;;;;14.77;6.72;;;-5.00;1.00;;;;;;5045600;28;20207;-73
2021/01/11 05:54:05;;;;;;;11.85;6.80;;;-5.00;1.00;;;;;;5049197;28;20697;-74
2021/01/11 05:56:57;;;;;;;13.02;7.68;;;-5.00;1.00;;;;;;5047172;28;20183;-74
2021/01/11 06:02:00;;;;;;;16.87;7.57;;;-5.00;1.00;;;;;;5054091;28;20207;-74
2021/01/11 06:04:30;;;;;;;15.50;8.55;;;-5.00;1.00;;;;;;5052789;28;20172;-74
2021/01/11 06:06:56;;;;;;;18.85;7.95;;;-5.00;1.00;;;;;;5053132;28;20829;-74
2021/01/11 06:09:22;;;;;;;16.10;7.15;;;-5.00;1.00;;;;;;5054472;28;20176;-74
2021/01/11 06:11:54;;;;;;;10.25;6.65;;;-5.10;1.00;;;;;;5052867;28;20631;-74
2021/01/11 06:14:34;;;;;;;15.25;7.10;;;-5.10;1.00;;;;;;5054307;28;20242;-74
2021/01/11 06:20:24;;;;;;;15.82;7.43;;;-5.10;1.00;;;;;;5040805;28;20218;-79
2021/01/11 06:26:27;;;;;;;14.77;7.45;;;-5.10;1.00;;;;;;5042741;28;20588;-79
2021/01/11 06:29:34;;;;;;;14.13;7.38;;;-5.10;1.00;;;;;;5052563;28;20173;-79
2021/01/11 06:32:35;;;;;;;12.95;6.80;;;-5.10;1.00;;;;;;5054029;28;20171;-74
2021/01/11 06:35:12;;;;;;;10.85;6.70;;;-5.10;1.00;;;;;;5034147;28;20188;-74
2021/01/11 06:37:41;;;;;;;12.43;6.70;;;-5.20;1.00;;;;;;5033872;28;20149;-74
2021/01/11 06:40:11;;;;;;;17.40;7.10;;;-5.20;1.00;;;;;;5033125;28;20250;-74
2021/01/11 06:42:40;;;;;;;14.85;7.30;;;-5.20;1.00;;;;;;5043705;28;20164;-74
2021/01/11 06:48:33;;;;;;;15.15;7.40;;;-5.20;1.00;;;;;;5042821;28;20509;-79
2021/01/11 06:51:05;;;;;;;13.45;6.55;;;;;;;;;;5037985;28;20180;-79
2021/01/11 06:54:05;;;;;;;13.70;7.45;;;-5.30;1.00;;;;;;5044642;28;20183;-79
2021/01/11 06:56:33;;;;;;;15.40;7.97;;;-5.40;1.00;;;;;;5039417;28;20332;-79
2021/01/11 06:59:12;;;;;;;13.30;7.82;;;-5.40;1.00;;;;;;5052008;28;20187;-80
2021/01/11 07:01:41;;;;;;;18.50;7.63;;;-5.30;1.00;;;;;;5052841;28;20293;-74
2021/01/11 07:04:09;;;;;;;14.40;7.45;;;-5.30;1.00;;;;;;5052748;28;20168;-79
2021/01/11 07:06:43;;;;;;;12.05;6.85;;;-5.30;1.00;;;;;;5051716;28;20171;-79
2021/01/11 07:09:14;;;;;;;12.40;7.05;;;-5.30;1.00;;;;;;5051144;28;20162;-80
2021/01/11 07:11:44;;;;;;;13.80;6.97;;;-5.20;1.00;;;;;;5047856;28;20169;-80
2021/01/11 07:14:11;;;;;;;16.02;7.00;;;-5.20;1.00;;;;;;5047570;28;20254;-79
2021/01/11 07:16:37;;;;;;;14.93;7.28;;;;;;;;;;5045568;28;20171;-79
2021/01/11 07:19:03;;;;;;;13.70;7.47;;;;;;;;;;5049002;28;20307;-79
2021/01/11 07:21:29;;;;;;;16.85;7.30;;;-5.10;1.00;;;;;;5058058;28;20287;-79
2021/01/11 07:23:56;;;;;;;13.43;7.33;;;-5.10;1.00;;;;;;5047365;28;20563;-79
2021/01/11 07:26:27;;;;;;;12.50;7.10;;;-5.00;1.00;;;;;;5052293;28;20556;-79
2021/01/11 07:29:05;;;;;;;19.25;8.27;;;-5.00;1.00;;;;;;5050611;28;20174;-79
2021/01/11 07:31:39;;;;;;;14.85;7.25;;;-5.00;1.00;;;;;;5042575;28;20185;-79
2021/01/11 07:34:06;;;;;;;18.70;7.22;;;;;;;;;;5041097;28;20218;-79
2021/01/11 07:36:49;;;;;;;15.48;7.90;;;-4.90;1.00;;;;;;5036108;28;20173;-79
2021/01/11 07:39:27;;;;;;;16.27;8.20;;;-4.80;1.00;;;;;;5036324;28;20168;-78
2021/01/11 07:41:58;;;;;;;18.20;8.55;;;-4.80;1.00;;;;;;5040072;28;20199;-79
2021/01/11 07:44:24;;;;;;;10.93;6.80;;;-4.80;1.00;;;;;;5056142;28;20665;-79
2021/01/11 07:47:04;;;;;;;15.73;7.65;;;-4.70;1.00;;;;;;5055037;28;20167;-74
2021/01/11 07:49:51;;;;;;;15.65;7.35;;;-4.70;1.00;;;;;;5048772;28;20645;-74
2021/01/11 07:52:21;;;;;;;14.20;6.60;;;-4.60;1.00;;;;;;5037701;28;20208;-75
2021/01/11 07:54:59;;;;;;;11.48;6.70;;;-4.60;1.00;;;;;;5039262;28;20191;-74
2021/01/11 07:57:30;;;;;;;16.17;7.60;;;-4.60;1.00;;;;;;5039930;28;20180;-73
2021/01/11 08:00:11;;;;;;;23.40;7.32;;;-4.50;1.00;;;;;;5055587;28;20184;-74
2021/01/11 08:02:44;;;;;;;13.63;8.13;;;-4.40;1.00;;;;;;5056076;28;20167;-74
2021/01/11 08:05:23;;;;;;;16.27;7.60;;;-4.40;1.00;;;;;;5049576;28;20242;-77
2021/01/11 08:07:54;;;;;;;18.35;7.90;;;-4.30;1.00;;;;;;5048798;28;20178;-74
2021/01/11 08:10:23;;;;;;;19.45;7.80;;;;;;;;;;5055672;28;20160;-74
2021/01/11 08:12:49;;;;;;;18.60;7.63;;;-4.30;1.00;;;;;;5055504;28;20163;-74
2021/01/11 08:15:18;;;;;;;18.60;8.30;;;-4.20;1.00;;;;;;5044474;28;20189;-74
2021/01/11 08:17:45;;;;;;;17.17;7.65;;;-4.10;1.00;;;;;;5052395;28;20172;-73
2021/01/11 08:20:10;;;;;;;15.63;8.50;;;-4.00;1.00;;;;;;5056443;28;20903;-73
2021/01/11 08:22:40;;;;;;;14.97;7.60;;;-3.80;1.00;;;;;;5056568;28;20168;-74
2021/01/11 08:25:06;;;;;;;19.20;7.85;;;;;;;;;;5054933;28;20783;-74
2021/01/11 08:27:49;;;;;;;15.13;7.13;;;-3.60;1.00;;;;;;5056102;28;20164;-74
2021/01/11 08:30:19;;;;;;;17.10;8.30;;;-3.60;1.00;;;;;;5055952;28;20156;-74
2021/01/11 08:32:46;;;;;;;15.90;8.30;;;-3.50;1.00;;;;;;5040536;28;20179;-74
2021/01/11 08:35:13;;;;;;;15.18;7.93;;;-3.30;1.00;;;;;;5054567;28;20211;-73
2021/01/11 08:37:41;;;;;;;15.88;8.18;;;;;;;;;;5055293;28;20187;-74
2021/01/11 08:40:12;;;;;;;21.05;8.57;;;-3.00;1.00;;;;;;5056046;28;20188;-74
2021/01/11 08:42:39;;;;;;;15.88;9.15;;;-3.00;1.00;;;;;;5054774;28;20159;-74
2021/01/11 08:45:40;;;;;;;14.98;8.20;;;-2.70;1.00;;;;;;5056156;28;20152;-73
2021/01/11 08:51:27;;;;;;;24.20;8.65;;;-2.40;1.00;;;;;;5051993;28;20191;-80
2021/01/11 09:00:37;;;;;;;18.02;8.50;;;-2.00;1.00;;;;;;5035306;28;20211;-79
2021/01/11 09:03:03;;;;;;;14.47;7.47;;;-1.90;1.00;;;;;;5047588;28;20168;-73
2021/01/11 09:05:37;;;;;;;17.30;7.60;;;-1.70;1.00;;;;;;5055746;28;20298;-74
2021/01/11 09:08:19;;;;;;;15.20;7.43;;;-1.60;1.00;;;;;;5055307;28;20234;-74
2021/01/11 09:10:46;;;;;;;19.88;6.95;;;-1.50;1.00;;;;;;5055546;28;20152;-74
2021/01/11 09:13:18;;;;;;;13.50;6.18;;;;;;;;;;5055386;28;20543;-73
2021/01/11 09:15:44;;;;;;;12.73;7.18;;;-1.20;1.00;;;;;;5055496;28;20515;-74
2021/01/11 09:21:31;;;;;;;17.75;7.07;;;-0.90;1.00;;;;;;5054906;28;20654;-79
2021/01/11 09:23:57;;;;;;;16.30;6.83;;;-0.90;1.00;;;;;;5055321;28;20164;-80
2021/01/11 09:29:46;;;;;;;12.60;6.38;;;-0.60;1.00;;;;;;5054828;28;20398;-79
2021/01/11 09:32:46;;;;;;;14.68;6.85;;;-0.60;1.00;;;;;;5055279;28;20585;-79
2021/01/11 09:35:15;;;;;;;10.23;6.50;;;-0.60;1.00;;;;;;5053732;28;20634;-79
2021/01/11 09:41:46;;;;;;;14.45;7.18;;;-0.40;1.00;;;;;;5054633;28;20708;-79
2021/01/11 09:44:11;;;;;;;6.72;4.35;;;-0.50;1.00;;;;;;5054689;28;20163;-79
2021/01/11 09:46:42;;;;;;;0.70;0.70;;;-0.40;1.00;;;;;;5054811;28;20156;-79
2021/01/11 09:49:08;;;;;;;5.68;3.50;;;-0.40;1.00;;;;;;5055024;28;20174;-73
2021/01/11 09:51:34;;;;;;;5.60;3.10;;;-0.50;1.00;;;;;;5054471;28;20631;-74
2021/01/11 09:54:00;;;;;;;4.07;3.30;;;-0.40;1.00;;;;;;5051437;28;20179;-74
2021/01/11 09:56:26;;;;;;;4.67;3.10;;;;;;;;;;5051586;28;20168;-74
2021/01/11 09:58:52;;;;;;;4.75;2.50;;;-0.40;1.00;;;;;;5041663;28;20195;-74
2021/01/11 10:01:18;;;;;;;5.80;3.35;;;-0.40;1.00;;;;;;5046753;28;20211;-74
2021/01/11 10:03:44;;;;;;;7.93;3.70;;;;;;;;;;5053960;28;20152;-74
2021/01/11 10:06:10;;;;;;;6.97;3.25;;;-0.20;1.00;;;;;;5053395;28;20171;-74
2021/01/11 10:08:36;;;;;;;25.13;5.30;;;;;;;;;;5053358;28;20160;-74
2021/01/11 10:11:11;;;;;;;6.72;4.13;;;0.00;1.00;;;;;;5053410;28;20390;-74
2021/01/11 10:13:37;;;;;;;3.72;3.15;;;;;;;;;;5053168;28;20702;-74
2021/01/11 10:16:03;;;;;;;8.73;4.57;;;;;;;;;;5053335;28;20239;-74
2021/01/11 10:18:40;;;;;;;9.15;4.22;;;0.60;1.00;;;;;;5042045;28;20521;-73
2021/01/11 10:21:06;;;;;;;7.05;4.03;;;0.70;1.00;;;;;;5054276;28;20191;-74
2021/01/11 10:23:40;;;;;;;5.50;3.90;;;1.00;1.00;;;;;;5052227;28;20659;-74
2021/01/11 10:26:06;;;;;;;5.40;3.88;;;1.20;1.00;;;;;;5052560;28;20254;-74
2021/01/11 10:28:40;;;;;;;9.60;5.17;;;1.30;1.00;;;;;;5047783;28;20568;-73
2021/01/11 10:31:06;;;;;;;8.27;4.95;;;;;;;;;;5053412;28;20657;-74
2021/01/11 10:33:32;;;;;;;9.30;4.47;;;;;;;;;;5053056;28;20183;-74
2021/01/11 10:35:58;;;;;;;11.53;5.70;;;;;;;;;;5033508;28;20414;-74
2021/01/11 10:38:24;;;;;;;10.35;6.00;;;1.40;1.00;;;;;;5039397;28;20410;-74
2021/01/11 10:40:49;;;;;;;13.17;6.10;;;1.50;1.00;;;;;;5037251;28;20200;-75
2021/01/11 10:43:15;;;;;;;16.67;6.10;;;;;;;;;;5032377;28;20188;-74
2021/01/11 10:46:22;;;;;;;15.30;6.67;;;1.70;1.00;;;;;;5033061;28;20192;-78
2021/01/11 10:49:04;;;;;;;9.02;5.60;;;1.70;1.00;;;;;;5034463;28;20433;-80
2021/01/11 10:54:52;;;;;;;12.57;5.88;;;1.80;1.00;;;;;;5053679;28;20669;-78
2021/01/11 10:57:59;;;;;;;14.00;5.00;;;2.00;1.00;;;;;;5046742;28;20192;-78
2021/01/11 11:00:35;;;;;;;12.88;5.53;;;2.00;1.00;;;;;;5041587;28;20215;-78
2021/01/11 11:03:10;;;;;;;11.65;5.97;;;2.00;1.00;;;;;;5053688;28;20274;-79
2021/01/11 11:05:36;;;;;;;13.02;5.53;;;2.00;1.00;;;;;;5051355;28;20746;-79
2021/01/11 11:08:02;;;;;;;16.87;6.50;;;;;;;;;;5049000;28;20179;-79
2021/01/11 11:10:28;;;;;;;13.23;6.35;;;;;;;;;;5052587;28;20187;-79
2021/01/11 11:12:54;;;;;;;13.40;6.30;;;;;;;;;;5052250;28;20194;-79
2021/01/11 11:15:20;;;;;;;14.90;6.32;;;2.10;1.00;;;;;;5034553;28;20164;-79
2021/01/11 11:17:46;;;;;;;10.10;5.63;;;;;;;;;;5048915;28;20225;-74
2021/01/11 11:20:13;;;;;;;21.90;7.82;;;;;;;;;;5052344;28;20222;-74
2021/01/11 11:22:39;;;;;;;13.55;5.97;;;;;;;;;;5041889;28;20179;-74
2021/01/11 11:25:11;;;;;;;10.30;6.30;;;;;;;;;;5037872;28;20179;-74
2021/01/11 11:27:37;;;;;;;12.73;6.45;;;;;;;;;;5051446;28;20178;-74
2021/01/11 11:30:05;;;;;;;12.77;6.43;;;2.30;1.00;;;;;;5040337;28;20593;-74
2021/01/11 11:32:34;;;;;;;16.20;6.55;;;2.30;1.00;;;;;;5036980;28;20241;-74
2021/01/11 11:35:05;;;;;;;11.38;5.68;;;2.40;1.00;;;;;;5051933;28;20199;-74
2021/01/11 11:37:32;;;;;;;13.10;5.85;;;2.40;1.00;;;;;;5050467;28;20184;-74
2021/01/11 11:39:58;;;;;;;17.23;7.20;;;;;;;;;;5032858;28;20620;-74
2021/01/11 11:42:24;;;;;;;14.15;6.72;;;;;;;;;;5043585;28;20204;-74
2021/01/11 11:44:50;;;;;;;14.33;7.07;;;;;;;;;;5050353;28;20191;-74
2021/01/11 11:47:16;;;;;;;16.57;6.30;;;;;;;;;;5050471;28;20897;-74
2021/01/11 11:49:42;;;;;;;12.67;6.53;;;;;;;;;;5051826;28;20475;-79
2021/01/11 11:52:08;;;;;;;14.53;6.67;;;;;;;;;;5051687;28;20831;-79
2021/01/11 11:54:34;;;;;;;13.57;6.50;;;;;;;;;;5038721;28;20399;-80
2021/01/11 11:57:02;;;;;;;19.20;7.20;;;2.80;1.00;;;;;;5050161;28;20615;-79
2021/01/11 11:59:28;;;;;;;18.75;6.95;;;2.80;1.00;;;;;;5047077;28;20442;-79
2021/01/11 12:01:54;;;;;;;13.67;6.37;;;;;;;;;;5033084;28;20220;-79
2021/01/11 12:04:20;;;;;;;11.73;5.85;;;2.80;1.00;;;;;;5032537;28;20184;-79
2021/01/11 12:06:46;;;;;;;12.30;6.43;;;;;;;;;;5032291;28;20164;-79
2021/01/11 12:09:12;;;;;;;12.80;6.00;;;;;;;;;;5032434;28;20171;-80
2021/01/11 12:11:42;;;;;;;13.25;5.93;;;2.80;1.00;;;;;;5032323;28;20148;-79
2021/01/11 12:14:08;;;;;;;15.93;6.65;;;;;;;;;;5032081;28;20165;-79
2021/01/11 12:16:34;;;;;;;16.27;6.72;;;;;;;;;;5036803;28;20618;-79
2021/01/11 12:19:00;;;;;;;11.98;5.70;;;;;;;;;;5054623;28;20225;-74
2021/01/11 12:21:34;;;;;;;11.73;5.72;;;2.80;1.00;;;;;;5055434;28;20194;-74
2021/01/11 12:24:01;;;;;;;14.13;7.00;;;2.90;1.00;;;;;;5055369;28;20235;-74
2021/01/11 12:26:27;;;;;;;10.30;5.55;;;;;;;;;;5055447;28;20206;-74
2021/01/11 12:28:53;;;;;;;14.40;6.90;;;;;;;;;;5055430;28;20160;-74
2021/01/11 12:31:27;;;;;;;12.75;6.38;;;3.00;1.00;;;;;;5055263;28;20877;-74
2021/01/11 12:33:53;;;;;;;14.80;6.45;;;;;;;;;;5055683;28;20634;-74
2021/01/11 12:36:26;;;;;;;24.85;7.55;;;3.10;1.00;;;;;;5054928;28;20520;-74
2021/01/11 12:38:53;;;;;;;8.70;5.40;;;3.10;1.00;;;;;;5055054;28;20187;-74
2021/01/11 12:41:20;;;;;;;12.13;6.20;;;3.20;1.00;;;;;;5055067;28;20192;-74
2021/01/11 12:43:46;;;;;;;15.77;6.70;;;;;;;;;;5054714;28;20242;-74
2021/01/11 12:46:18;;;;;;;17.55;6.70;;;3.10;1.00;;;;;;5054986;28;20171;-74
2021/01/11 12:48:44;;;;;;;13.43;6.78;;;3.20;1.00;;;;;;5044274;28;20184;-74
2021/01/11 12:51:17;;;;;;;13.02;6.50;;;3.30;1.00;;;;;;5036888;28;20612;-74
2021/01/11 12:53:46;;;;;;;15.88;6.35;;;3.40;1.00;;;;;;5048058;28;20218;-74
2021/01/11 12:56:15;;;;;;;15.88;6.97;;;3.40;1.00;;;;;;5045954;28;20262;-74
2021/01/11 12:58:41;;;;;;;12.43;6.10;;;;;;;;;;5054557;28;20254;-74
2021/01/11 13:01:07;;;;;;;12.50;6.85;;;3.60;1.00;;;;;;5047256;28;20207;-74
2021/01/11 13:03:36;;;;;;;18.33;6.77;;;;;;;;;;5034757;28;20200;-74
2021/01/11 13:06:02;;;;;;;14.20;6.22;;;;;;;;;;5054092;28;20168;-74
2021/01/11 13:08:28;;;;;;;14.07;6.47;;;;;;;;;;5054696;28;20282;-74
2021/01/11 13:10:54;;;;;;;11.02;6.00;;;;;;;;;;5054570;28;20189;-74
2021/01/11 13:13:20;;;;;;;13.18;6.50;;;;;;;;;;5054462;28;20163;-74
2021/01/11 13:15:47;;;;;;;8.68;5.60;;;;;;;;;;5054358;28;20170;-74
2021/01/11 13:18:14;;;;;;;12.30;6.30;;;3.70;1.00;;;;;;5054136;28;20186;-79
2021/01/11 13:20:40;;;;;;;17.90;7.18;;;;;;;;;;5054667;28;20654;-74
2021/01/11 13:23:06;;;;;;;12.23;5.95;;;;;;;;;;5054308;28;20616;-74
2021/01/11 13:25:32;;;;;;;18.10;6.30;;;;;;;;;;5054344;28;20214;-74
2021/01/11 13:27:58;;;;;;;13.82;6.53;;;;;;;;;;5054207;28;20387;-74
2021/01/11 13:30:24;;;;;;;12.18;6.38;;;;;;;;;;5051354;28;20176;-74
2021/01/11 13:32:53;;;;;;;11.30;6.10;;;3.30;1.00;;;;;;5044641;28;20180;-74
2021/01/11 13:35:19;;;;;;;10.32;6.22;;;;;;;;;;5034325;28;20187;-74
2021/01/11 13:37:45;;;;;;;12.02;5.82;;;;;;;;;;5037526;28;20584;-72
2021/01/11 13:40:11;;;;;;;12.13;6.70;;;;;;;;;;5052511;28;20164;-73
2021/01/11 13:42:37;;;;;;;11.63;6.13;;;;;;;;;;5052009;28;20446;-75
2021/01/11 13:45:04;;;;;;;8.02;4.97;;;3.10;1.00;;;;;;5053826;28;20277;-74
2021/01/11 13:47:30;;;;;;;8.75;5.03;;;;;;;;;;5050507;28;20225;-74
2021/01/11 13:49:56;;;;;;;16.63;5.83;;;;;;;;;;5049218;28;20247;-72
2021/01/11 13:52:23;;;;;;;11.13;6.10;;;3.30;1.00;;;;;;5044051;28;20931;-73
2021/01/11 13:54:50;;;;;;;12.18;6.43;;;;;;;;;;5053579;28;20673;-72
2021/01/11 13:57:16;;;;;;;12.40;5.85;;;;;;;;;;5053608;28;20525;-75
2021/01/11 13:59:42;;;;;;;17.88;6.28;;;;;;;;;;5047840;28;20192;-71
2021/01/11 14:02:08;;;;;;;14.23;6.30;;;;;;;;;;5043589;28;20306;-74
2021/01/11 14:04:34;;;;;;;14.73;7.40;;;;;;;;;;5042743;28;20215;-78
2021/01/11 14:07:00;;;;;;;13.15;6.35;;;3.50;1.00;;;;;;5045858;28;20180;-79
2021/01/11 14:09:26;;;;;;;10.87;6.20;;;;;;;;;;5039450;28;20174;-78
2021/01/11 14:11:52;;;;;;;16.48;6.65;;;;;;;;;;5053039;28;20391;-78
2021/01/11 14:14:18;;;;;;;15.32;7.10;;;;;;;;;;5049118;28;20625;-81
2021/01/11 14:16:45;;;;;;;11.87;5.77;;;3.50;1.00;;;;;;5048199;28;20233;-82
2021/01/11 14:19:11;;;;;;;11.23;5.88;;;;;;;;;;5053155;28;20493;-80
2021/01/11 14:21:36;;;;;;;15.30;5.70;;;;;;;;;;5045692;28;20295;-80
2021/01/11 14:24:03;;;;;;;10.37;5.03;;;;;;;;;;5033550;28;20804;-81
2021/01/11 14:26:35;;;;;;;12.82;5.90;;;3.40;1.00;;;;;;5033163;28;20407;-79
2021/01/11 14:29:03;;;;;;;14.73;5.93;;;3.30;1.00;;;;;;5035274;28;20204;-80
2021/01/11 14:31:29;;;;;;;15.25;6.47;;;;;;;;;;5052772;28;20254;-80
2021/01/11 14:33:55;;;;;;;11.20;5.82;;;;;;;;;;5053128;28;20238;-80
2021/01/11 14:36:21;;;;;;;14.35;6.18;;;3.40;1.00;;;;;;5051212;28;20176;-72
2021/01/11 14:38:47;;;;;;;12.83;6.20;;;3.40;1.00;;;;;;5051418;28;20542;-72
2021/01/11 14:41:13;;;;;;;10.00;5.20;;;3.50;1.00;;;;;;5046102;28;20457;-72
2021/01/11 14:43:40;;;;;;;12.77;5.82;;;3.40;1.00;;;;;;5050834;28;20472;-73
2021/01/11 14:46:06;;;;;;;15.70;5.28;;;;;;;;;;5037390;28;20185;-73
2021/01/11 14:48:38;;;;;;;16.73;6.20;;;3.40;1.00;;;;;;5033910;28;20169;-73
2021/01/11 14:51:11;;;;;;;10.88;6.05;;;3.40;1.00;;;;;;5042641;28;20175;-73
2021/01/11 14:53:40;;;;;;;11.73;5.95;;;3.40;1.00;;;;;;5043687;28;20187;-73
2021/01/11 14:56:12;;;;;;;14.00;6.22;;;3.40;1.00;;;;;;5041807;28;20251;-74
2021/01/11 14:58:38;;;;;;;12.88;5.50;;;3.40;1.00;;;;;;5042747;28;20176;-74
2021/01/11 15:01:05;;;;;;;11.17;6.27;;;3.40;1.00;;;;;;5052423;28;20681;-73
2021/01/11 15:03:31;;;;;;;11.57;5.80;;;3.30;1.00;;;;;;5044787;28;20508;-73
2021/01/11 15:06:09;;;;;;;12.13;6.00;;;3.30;1.00;;;;;;5047426;28;20188;-73
2021/01/11 15:08:47;;;;;;;12.88;5.75;;;3.20;1.00;;;;;;5052006;28;20276;-74
2021/01/11 15:11:14;;;;;;;10.82;5.72;;;3.10;1.00;;;;;;5051454;28;20175;-72
2021/01/11 15:13:42;;;;;;;11.73;5.25;;;3.10;1.00;;;;;;5052239;28;20186;-73
2021/01/11 15:16:10;;;;;;;14.70;5.38;;;3.00;1.00;;;;;;5048572;28;20176;-74
2021/01/11 15:18:37;;;;;;;12.25;6.00;;;3.00;1.00;;;;;;5052173;28;20184;-74
2021/01/11 15:21:13;;;;;;;10.30;5.72;;;3.00;1.00;;;;;;5035297;28;20211;-74
2021/01/11 15:23:41;;;;;;;8.43;5.15;;;2.90;1.00;;;;;;5033512;28;20156;-74
2021/01/11 15:26:16;;;;;;;13.80;5.15;;;2.80;1.00;;;;;;5033678;28;20632;-74
2021/01/11 15:28:59;;;;;;;12.73;5.80;;;;;;;;;;5033545;28;20239;-74
2021/01/11 15:31:25;;;;;;;9.32;5.28;;;;;;;;;;5032552;28;20309;-74
2021/01/11 15:33:52;;;;;;;8.23;3.92;;;2.70;1.00;;;;;;5038319;28;20180;-75
2021/01/11 15:36:28;;;;;;;12.77;5.18;;;2.60;1.00;;;;;;5033436;28;20183;-73
2021/01/11 15:39:05;;;;;;;8.15;4.57;;;2.60;1.00;;;;;;5033515;28;20172;-73
2021/01/11 15:41:32;;;;;;;7.68;4.30;;;2.50;1.00;;;;;;5052842;28;20188;-74
2021/01/11 15:44:04;;;;;;;8.38;4.57;;;2.50;1.00;;;;;;5052974;28;20626;-74